sensor_id;sensor_type;location;lat;lon;timestamp;pressure;altitude;pressure_sealevel;temperature;humidity
23363;BME280;11853;48.080;11.960;2024-03-08T00:01:09;94676.13;;;1.50;100.00
23363;BME280;11853;48.080;11.960;2024-03-08T00:03:35;94670.69;;;1.53;100.00
23363;BME280;11853;48.080;11.960;2024-03-08T00:06:01;94669.94;;;1.51;100.00
23363;BME280;11853;48.080;11.960;2024-03-08T00:08:26;94669.09;;;1.38;100.00
23363;BME280;11853;48.080;11.960;2024-03-08T00:10:52;94676.13;;;1.50;100.00
23363;BME280;11853;48.080;11.960;2024-03-08T00:13:18;94667.75;;;1.45;100.00
23363;BME280;11853;48.080;11.960;2024-03-08T00:15:43;94665.94;;;1.33;100.00
23363;BME280;11853;48.080;11.960;2024-03-08T00:18:09;94665.31;;;1.29;100.00
23363;BME280;11853;48.080;11.960;2024-03-08T00:20:36;94660.59;;;1.22;100.00
23363;BME280;11853;48.080;11.960;2024-03-08T00:23:02;94668.47;;;1.34;100.00
23363;BME280;11853;48.080;11.960;2024-03-08T00:25:28;94669.59;;;1.30;100.00
23363;BME280;11853;48.080;11.960;2024-03-08T00:27:53;94665.28;;;1.17;100.00
23363;BME280;11853;48.080;11.960;2024-03-08T00:30:22;94661.28;;;1.11;100.00
23363;BME280;11853;48.080;11.960;2024-03-08T00:32:50;94657.44;;;1.17;100.00
23363;BME280;11853;48.080;11.960;2024-03-08T00:35:16;94652.97;;;1.19;100.00
23363;BME280;11853;48.080;11.960;2024-03-08T00:37:41;94652.00;;;1.07;100.00
23363;BME280;11853;48.080;11.960;2024-03-08T00:40:08;94656.19;;;1.09;100.00
23363;BME280;11853;48.080;11.960;2024-03-08T00:42:34;94653.91;;;1.18;100.00
23363;BME280;11853;48.080;11.960;2024-03-08T00:45:01;94653.38;;;1.12;100.00
23363;BME280;11853;48.080;11.960;2024-03-08T00:47:26;94647.00;;;1.17;100.00
23363;BME280;11853;48.080;11.960;2024-03-08T00:49:52;94648.34;;;1.09;100.00
23363;BME280;11853;48.080;11.960;2024-03-08T00:52:18;94637.19;;;1.20;100.00
23363;BME280;11853;48.080;11.960;2024-03-08T00:54:44;94633.00;;;1.18;100.00
23363;BME280;11853;48.080;11.960;2024-03-08T00:57:10;94631.31;;;1.17;100.00
23363;BME280;11853;48.080;11.960;2024-03-08T00:59:38;94632.56;;;1.11;100.00
23363;BME280;11853;48.080;11.960;2024-03-08T01:02:03;94628.25;;;0.97;100.00
23363;BME280;11853;48.080;11.960;2024-03-08T01:04:29;94633.81;;;1.05;100.00
23363;BME280;11853;48.080;11.960;2024-03-08T01:06:56;94622.94;;;0.99;100.00
23363;BME280;11853;48.080;11.960;2024-03-08T01:09:25;94619.44;;;0.85;100.00
23363;BME280;11853;48.080;11.960;2024-03-08T01:11:52;94621.91;;;1.01;100.00
23363;BME280;11853;48.080;11.960;2024-03-08T01:14:20;94625.28;;;1.16;100.00
23363;BME280;11853;48.080;11.960;2024-03-08T01:16:48;94606.56;;;1.09;100.00
23363;BME280;11853;48.080;11.960;2024-03-08T01:19:14;94616.06;;;1.10;100.00
23363;BME280;11853;48.080;11.960;2024-03-08T01:21:41;94599.13;;;1.03;100.00
23363;BME280;11853;48.080;11.960;2024-03-08T01:24:07;94598.41;;;1.01;100.00
23363;BME280;11853;48.080;11.960;2024-03-08T01:26:33;94606.66;;;1.08;100.00
23363;BME280;11853;48.080;11.960;2024-03-08T01:29:02;94602.38;;;1.07;100.00
23363;BME280;11853;48.080;11.960;2024-03-08T01:31:30;94593.50;;;1.09;100.00
23363;BME280;11853;48.080;11.960;2024-03-08T01:33:59;94589.53;;;1.04;100.00
23363;BME280;11853;48.080;11.960;2024-03-08T01:36:25;94587.63;;;1.06;100.00
23363;BME280;11853;48.080;11.960;2024-03-08T01:38:51;94583.69;;;1.00;100.00
23363;BME280;11853;48.080;11.960;2024-03-08T01:41:17;94580.72;;;0.92;100.00
23363;BME280;11853;48.080;11.960;2024-03-08T01:43:43;94580.28;;;0.85;100.00
23363;BME280;11853;48.080;11.960;2024-03-08T01:46:10;94572.56;;;0.84;100.00
23363;BME280;11853;48.080;11.960;2024-03-08T01:48:38;94569.22;;;0.82;100.00
23363;BME280;11853;48.080;11.960;2024-03-08T01:51:06;94572.91;;;0.92;100.00
23363;BME280;11853;48.080;11.960;2024-03-08T01:53:32;94563.38;;;0.78;100.00
23363;BME280;11853;48.080;11.960;2024-03-08T01:55:59;94566.06;;;0.77;100.00
23363;BME280;11853;48.080;11.960;2024-03-08T01:58:27;94565.47;;;0.86;100.00
23363;BME280;11853;48.080;11.960;2024-03-08T02:00:54;94555.25;;;0.96;100.00
23363;BME280;11853;48.080;11.960;2024-03-08T02:03:21;94556.28;;;0.93;100.00
23363;BME280;11853;48.080;11.960;2024-03-08T02:05:48;94545.91;;;0.79;100.00
23363;BME280;11853;48.080;11.960;2024-03-08T02:08:14;94540.78;;;0.64;100.00
23363;BME280;11853;48.080;11.960;2024-03-08T02:10:49;94544.34;;;0.76;100.00
23363;BME280;11853;48.080;11.960;2024-03-08T02:13:15;94531.41;;;0.75;100.00
23363;BME280;11853;48.080;11.960;2024-03-08T02:18:15;94534.66;;;0.78;100.00
23363;BME280;11853;48.080;11.960;2024-03-08T02:20:43;94537.56;;;0.74;100.00
23363;BME280;11853;48.080;11.960;2024-03-08T02:23:08;94538.66;;;0.57;100.00
23363;BME280;11853;48.080;11.960;2024-03-08T02:25:35;94532.59;;;0.56;100.00
23363;BME280;11853;48.080;11.960;2024-03-08T02:28:00;94535.53;;;0.52;100.00
23363;BME280;11853;48.080;11.960;2024-03-08T02:30:26;94531.16;;;0.52;100.00
23363;BME280;11853;48.080;11.960;2024-03-08T02:32:55;94537.63;;;0.59;100.00
23363;BME280;11853;48.080;11.960;2024-03-08T02:35:21;94537.94;;;0.55;100.00
23363;BME280;11853;48.080;11.960;2024-03-08T02:37:47;94532.94;;;0.64;100.00
23363;BME280;11853;48.080;11.960;2024-03-08T02:40:13;94531.16;;;0.65;100.00
23363;BME280;11853;48.080;11.960;2024-03-08T02:42:39;94530.34;;;0.64;100.00
23363;BME280;11853;48.080;11.960;2024-03-08T02:45:05;94530.97;;;0.68;100.00
23363;BME280;11853;48.080;11.960;2024-03-08T02:47:31;94529.28;;;0.67;100.00
23363;BME280;11853;48.080;11.960;2024-03-08T02:49:57;94517.69;;;0.58;100.00
23363;BME280;11853;48.080;11.960;2024-03-08T02:52:23;94522.38;;;0.53;100.00
23363;BME280;11853;48.080;11.960;2024-03-08T02:54:48;94524.16;;;0.53;100.00
23363;BME280;11853;48.080;11.960;2024-03-08T02:57:15;94518.44;;;0.60;100.00
23363;BME280;11853;48.080;11.960;2024-03-08T02:59:41;94517.69;;;0.58;100.00
23363;BME280;11853;48.080;11.960;2024-03-08T03:02:06;94513.44;;;0.57;100.00
23363;BME280;11853;48.080;11.960;2024-03-08T03:04:32;94510.06;;;0.68;100.00
23363;BME280;11853;48.080;11.960;2024-03-08T03:07:00;94508.41;;;0.67;100.00
23363;BME280;11853;48.080;11.960;2024-03-08T03:09:26;94510.19;;;0.66;100.00
23363;BME280;11853;48.080;11.960;2024-03-08T03:11:55;94503.81;;;0.71;100.00
23363;BME280;11853;48.080;11.960;2024-03-08T03:14:21;94500.19;;;0.73;100.00
23363;BME280;11853;48.080;11.960;2024-03-08T03:16:47;94509.03;;;0.58;100.00
23363;BME280;11853;48.080;11.960;2024-03-08T03:19:13;94502.84;;;0.46;100.00
23363;BME280;11853;48.080;11.960;2024-03-08T03:21:40;94500.88;;;0.50;100.00
23363;BME280;11853;48.080;11.960;2024-03-08T03:24:08;94501.78;;;0.49;100.00
23363;BME280;11853;48.080;11.960;2024-03-08T03:26:39;94494.81;;;0.49;100.00
23363;BME280;11853;48.080;11.960;2024-03-08T03:29:06;94505.47;;;0.59;100.00
23363;BME280;11853;48.080;11.960;2024-03-08T03:31:33;94503.88;;;0.43;100.00
23363;BME280;11853;48.080;11.960;2024-03-08T03:33:59;94508.91;;;0.47;100.00
23363;BME280;11853;48.080;11.960;2024-03-08T03:36:31;94510.81;;;0.57;100.00
23363;BME280;11853;48.080;11.960;2024-03-08T03:38:58;94504.66;;;0.58;100.00
23363;BME280;11853;48.080;11.960;2024-03-08T03:41:50;94498.16;;;0.51;100.00
23363;BME280;11853;48.080;11.960;2024-03-08T03:44:17;94505.78;;;0.54;100.00
23363;BME280;11853;48.080;11.960;2024-03-08T03:46:43;94499.50;;;0.44;100.00
23363;BME280;11853;48.080;11.960;2024-03-08T03:49:09;94494.91;;;0.48;100.00
23363;BME280;11853;48.080;11.960;2024-03-08T03:51:35;94497.19;;;0.39;100.00
23363;BME280;11853;48.080;11.960;2024-03-08T03:54:00;94505.41;;;0.33;100.00
23363;BME280;11853;48.080;11.960;2024-03-08T03:56:29;94493.94;;;0.36;100.00
23363;BME280;11853;48.080;11.960;2024-03-08T03:58:55;94499.25;;;0.34;100.00
23363;BME280;11853;48.080;11.960;2024-03-08T04:01:22;94498.41;;;0.34;100.00
23363;BME280;11853;48.080;11.960;2024-03-08T04:03:47;94488.78;;;0.21;100.00
23363;BME280;11853;48.080;11.960;2024-03-08T04:06:13;94488.09;;;0.32;100.00
23363;BME280;11853;48.080;11.960;2024-03-08T04:08:45;94485.81;;;0.40;100.00
23363;BME280;11853;48.080;11.960;2024-03-08T04:11:11;94491.09;;;0.26;100.00
23363;BME280;11853;48.080;11.960;2024-03-08T04:13:37;94484.47;;;0.35;100.00
23363;BME280;11853;48.080;11.960;2024-03-08T04:16:03;94479.09;;;0.24;100.00
23363;BME280;11853;48.080;11.960;2024-03-08T04:18:34;94476.38;;;0.25;100.00
23363;BME280;11853;48.080;11.960;2024-03-08T04:21:02;94483.16;;;0.28;100.00
23363;BME280;11853;48.080;11.960;2024-03-08T04:23:28;94480.13;;;0.21;100.00
23363;BME280;11853;48.080;11.960;2024-03-08T04:25:54;94473.28;;;0.33;100.00
23363;BME280;11853;48.080;11.960;2024-03-08T04:28:19;94480.56;;;0.28;100.00
23363;BME280;11853;48.080;11.960;2024-03-08T04:30:45;94476.63;;;0.35;100.00
23363;BME280;11853;48.080;11.960;2024-03-08T04:33:11;94468.88;;;0.20;100.00
23363;BME280;11853;48.080;11.960;2024-03-08T04:35:37;94475.66;;;0.23;100.00
23363;BME280;11853;48.080;11.960;2024-03-08T04:38:02;94468.41;;;0.14;100.00
23363;BME280;11853;48.080;11.960;2024-03-08T04:40:30;94472.19;;;0.22;100.00
23363;BME280;11853;48.080;11.960;2024-03-08T04:42:57;94469.91;;;0.18;100.00
23363;BME280;11853;48.080;11.960;2024-03-08T04:45:24;94468.88;;;0.20;100.00
23363;BME280;11853;48.080;11.960;2024-03-08T04:47:51;94473.88;;;0.24;100.00
23363;BME280;11853;48.080;11.960;2024-03-08T04:50:18;94469.38;;;0.26;100.00
23363;BME280;11853;48.080;11.960;2024-03-08T04:52:43;94465.53;;;0.31;100.00
23363;BME280;11853;48.080;11.960;2024-03-08T04:55:09;94467.84;;;0.36;100.00
23363;BME280;11853;48.080;11.960;2024-03-08T04:57:35;94468.69;;;0.36;100.00
23363;BME280;11853;48.080;11.960;2024-03-08T05:03:22;94458.31;;;0.09;100.00
23363;BME280;11853;48.080;11.960;2024-03-08T05:05:51;94455.38;;;0.14;100.00
23363;BME280;11853;48.080;11.960;2024-03-08T05:08:17;94447.34;;;0.17;100.00
23363;BME280;11853;48.080;11.960;2024-03-08T05:10:44;94452.88;;;0.12;100.00
23363;BME280;11853;48.080;11.960;2024-03-08T05:13:09;94455.84;;;0.20;100.00
23363;BME280;11853;48.080;11.960;2024-03-08T05:18:53;94458.09;;;0.12;100.00
23363;BME280;11853;48.080;11.960;2024-03-08T05:21:20;94452.38;;;0.20;100.00
23363;BME280;11853;48.080;11.960;2024-03-08T05:23:46;94445.59;;;0.17;100.00
23363;BME280;11853;48.080;11.960;2024-03-08T05:26:11;94453.28;;;0.06;100.00
23363;BME280;11853;48.080;11.960;2024-03-08T05:28:37;94450.47;;;0.09;100.00
23363;BME280;11853;48.080;11.960;2024-03-08T05:31:03;94455.28;;;0.15;100.00
23363;BME280;11853;48.080;11.960;2024-03-08T05:33:29;94451.72;;;0.16;100.00
23363;BME280;11853;48.080;11.960;2024-03-08T05:35:54;94448.22;;;0.17;100.00
23363;BME280;11853;48.080;11.960;2024-03-08T05:38:21;94454.47;;;0.15;100.00
23363;BME280;11853;48.080;11.960;2024-03-08T05:40:46;94445.91;;;0.13;100.00
23363;BME280;11853;48.080;11.960;2024-03-08T05:43:12;94460.06;;;0.09;100.00
23363;BME280;11853;48.080;11.960;2024-03-08T05:45:38;94449.97;;;0.17;100.00
23363;BME280;11853;48.080;11.960;2024-03-08T05:48:04;94448.00;;;0.20;100.00
23363;BME280;11853;48.080;11.960;2024-03-08T05:50:30;94456.34;;;0.26;100.00
23363;BME280;11853;48.080;11.960;2024-03-08T05:52:56;94443.22;;;0.27;100.00
23363;BME280;11853;48.080;11.960;2024-03-08T05:55:24;94444.66;;;0.18;100.00
23363;BME280;11853;48.080;11.960;2024-03-08T05:57:52;94439.03;;;0.25;100.00
23363;BME280;11853;48.080;11.960;2024-03-08T06:00:19;94441.47;;;0.40;100.00
23363;BME280;11853;48.080;11.960;2024-03-08T06:02:45;94433.94;;;0.36;100.00
23363;BME280;11853;48.080;11.960;2024-03-08T06:05:10;94434.47;;;0.41;100.00
23363;BME280;11853;48.080;11.960;2024-03-08T06:07:37;94431.13;;;0.39;100.00
23363;BME280;11853;48.080;11.960;2024-03-08T06:10:10;94433.00;;;0.37;100.00
23363;BME280;11853;48.080;11.960;2024-03-08T06:12:36;94431.25;;;0.50;100.00
23363;BME280;11853;48.080;11.960;2024-03-08T06:15:10;94428.72;;;0.36;100.00
23363;BME280;11853;48.080;11.960;2024-03-08T06:17:38;94434.75;;;0.24;100.00
23363;BME280;11853;48.080;11.960;2024-03-08T06:20:04;94431.53;;;0.33;100.00
23363;BME280;11853;48.080;11.960;2024-03-08T06:22:37;94434.16;;;0.45;100.00
23363;BME280;11853;48.080;11.960;2024-03-08T06:25:04;94423.44;;;0.50;100.00
23363;BME280;11853;48.080;11.960;2024-03-08T06:27:30;94434.47;;;0.41;100.00
23363;BME280;11853;48.080;11.960;2024-03-08T06:30:01;94439.38;;;0.45;100.00
23363;BME280;11853;48.080;11.960;2024-03-08T06:32:30;94430.97;;;0.55;100.00
23363;BME280;11853;48.080;11.960;2024-03-08T06:34:55;94435.22;;;0.56;100.00
23363;BME280;11853;48.080;11.960;2024-03-08T06:37:21;94427.47;;;0.54;100.00
23363;BME280;11853;48.080;11.960;2024-03-08T06:39:50;94423.88;;;0.70;100.00
23363;BME280;11853;48.080;11.960;2024-03-08T06:42:17;94425.63;;;0.82;100.00
23363;BME280;11853;48.080;11.960;2024-03-08T06:44:42;94421.56;;;1.03;100.00
23363;BME280;11853;48.080;11.960;2024-03-08T06:47:15;94423.19;;;1.17;100.00
23363;BME280;11853;48.080;11.960;2024-03-08T06:49:44;94424.19;;;1.40;100.00
23363;BME280;11853;48.080;11.960;2024-03-08T06:52:10;94422.28;;;1.55;100.00
23363;BME280;11853;48.080;11.960;2024-03-08T06:54:36;94433.31;;;1.71;100.00
23363;BME280;11853;48.080;11.960;2024-03-08T06:57:05;94427.69;;;1.65;100.00
23363;BME280;11853;48.080;11.960;2024-03-08T06:59:31;94434.19;;;1.83;100.00
23363;BME280;11853;48.080;11.960;2024-03-08T07:01:57;94441.13;;;1.84;100.00
23363;BME280;11853;48.080;11.960;2024-03-08T07:04:25;94438.28;;;1.87;100.00
23363;BME280;11853;48.080;11.960;2024-03-08T07:06:57;94443.84;;;2.07;100.00
23363;BME280;11853;48.080;11.960;2024-03-08T07:09:24;94435.66;;;2.11;100.00
23363;BME280;11853;48.080;11.960;2024-03-08T07:11:50;94437.88;;;2.29;100.00
23363;BME280;11853;48.080;11.960;2024-03-08T07:14:23;94442.88;;;2.67;100.00
23363;BME280;11853;48.080;11.960;2024-03-08T07:16:49;94446.75;;;2.50;100.00
23363;BME280;11853;48.080;11.960;2024-03-08T07:19:16;94431.22;;;2.71;100.00
23363;BME280;11853;48.080;11.960;2024-03-08T07:21:43;94442.69;;;2.92;100.00
23363;BME280;11853;48.080;11.960;2024-03-08T07:24:10;94431.03;;;3.08;100.00
23363;BME280;11853;48.080;11.960;2024-03-08T07:27:13;94431.03;;;3.53;100.00
23363;BME280;11853;48.080;11.960;2024-03-08T07:29:39;94426.53;;;4.10;100.00
23363;BME280;11853;48.080;11.960;2024-03-08T07:32:05;94413.97;;;4.87;100.00
23363;BME280;11853;48.080;11.960;2024-03-08T07:34:51;94414.00;;;5.18;100.00
23363;BME280;11853;48.080;11.960;2024-03-08T07:37:20;94417.22;;;5.52;100.00
23363;BME280;11853;48.080;11.960;2024-03-08T07:39:46;94417.69;;;5.77;100.00
23363;BME280;11853;48.080;11.960;2024-03-08T07:42:11;94416.94;;;5.96;96.82
23363;BME280;11853;48.080;11.960;2024-03-08T07:44:37;94412.50;;;5.96;96.03
23363;BME280;11853;48.080;11.960;2024-03-08T07:47:03;94410.31;;;6.01;98.38
23363;BME280;11853;48.080;11.960;2024-03-08T07:49:29;94417.19;;;5.93;95.79
23363;BME280;11853;48.080;11.960;2024-03-08T07:51:56;94412.69;;;5.83;97.10
23363;BME280;11853;48.080;11.960;2024-03-08T07:54:21;94413.78;;;6.41;94.20
23363;BME280;11853;48.080;11.960;2024-03-08T07:56:47;94418.91;;;6.23;94.49
23363;BME280;11853;48.080;11.960;2024-03-08T07:59:13;94415.03;;;6.85;91.81
23363;BME280;11853;48.080;11.960;2024-03-08T08:01:38;94412.06;;;7.08;88.96
23363;BME280;11853;48.080;11.960;2024-03-08T08:04:04;94410.88;;;6.53;90.07
23363;BME280;11853;48.080;11.960;2024-03-08T08:06:30;94418.66;;;6.65;93.43
23363;BME280;11853;48.080;11.960;2024-03-08T08:08:59;94416.09;;;7.02;91.99
23363;BME280;11853;48.080;11.960;2024-03-08T08:11:26;94418.66;;;7.31;86.59
23363;BME280;11853;48.080;11.960;2024-03-08T08:13:54;94404.75;;;7.76;88.35
23363;BME280;11853;48.080;11.960;2024-03-08T08:16:22;94405.66;;;8.30;84.11
23363;BME280;11853;48.080;11.960;2024-03-08T08:18:48;94410.03;;;8.22;81.78
23363;BME280;11853;48.080;11.960;2024-03-08T08:21:14;94394.56;;;8.80;81.13
23363;BME280;11853;48.080;11.960;2024-03-08T08:23:39;94394.31;;;8.48;79.38
23363;BME280;11853;48.080;11.960;2024-03-08T08:26:05;94390.34;;;8.52;80.95
23363;BME280;11853;48.080;11.960;2024-03-08T08:28:32;94400.38;;;8.30;80.93
23363;BME280;11853;48.080;11.960;2024-03-08T08:30:58;94390.34;;;8.52;80.65
23363;BME280;11853;48.080;11.960;2024-03-08T08:33:25;94385.75;;;8.54;79.66
23363;BME280;11853;48.080;11.960;2024-03-08T08:35:51;94386.03;;;8.69;78.46
23363;BME280;11853;48.080;11.960;2024-03-08T08:38:19;94372.91;;;8.77;78.11
23363;BME280;11853;48.080;11.960;2024-03-08T08:40:45;94375.09;;;8.82;77.58
23363;BME280;11853;48.080;11.960;2024-03-08T08:43:12;94367.09;;;8.99;77.69
23363;BME280;11853;48.080;11.960;2024-03-08T08:45:39;94374.13;;;8.65;79.00
23363;BME280;11853;48.080;11.960;2024-03-08T08:48:05;94378.75;;;8.89;77.95
23363;BME280;11853;48.080;11.960;2024-03-08T08:50:31;94375.03;;;9.25;76.63
23363;BME280;11853;48.080;11.960;2024-03-08T08:52:57;94366.56;;;9.48;77.56
23363;BME280;11853;48.080;11.960;2024-03-08T08:55:24;94367.84;;;9.44;75.04
23363;BME280;11853;48.080;11.960;2024-03-08T08:57:52;94365.47;;;9.24;77.63
23363;BME280;11853;48.080;11.960;2024-03-08T09:00:21;94364.59;;;9.50;75.80
23363;BME280;11853;48.080;11.960;2024-03-08T09:02:52;94358.69;;;9.04;77.04
23363;BME280;11853;48.080;11.960;2024-03-08T09:05:20;94347.75;;;8.99;80.04
23363;BME280;11853;48.080;11.960;2024-03-08T09:07:46;94354.19;;;8.96;78.48
23363;BME280;11853;48.080;11.960;2024-03-08T09:10:12;94363.47;;;9.27;76.76
23363;BME280;11853;48.080;11.960;2024-03-08T09:12:39;94357.16;;;9.19;76.97
23363;BME280;11853;48.080;11.960;2024-03-08T09:15:06;94358.78;;;9.20;77.88
23363;BME280;11853;48.080;11.960;2024-03-08T09:17:37;94349.41;;;9.26;82.88
23363;BME280;11853;48.080;11.960;2024-03-08T09:20:09;94337.91;;;9.43;79.01
23363;BME280;11853;48.080;11.960;2024-03-08T09:22:43;94343.31;;;9.34;76.89
23363;BME280;11853;48.080;11.960;2024-03-08T09:25:09;94347.25;;;9.21;77.73
23363;BME280;11853;48.080;11.960;2024-03-08T09:27:35;94352.31;;;9.49;81.56
23363;BME280;11853;48.080;11.960;2024-03-08T09:30:01;94350.47;;;9.84;80.74
23363;BME280;11853;48.080;11.960;2024-03-08T09:32:27;94347.91;;;10.08;77.50
23363;BME280;11853;48.080;11.960;2024-03-08T09:34:52;94338.84;;;10.35;76.21
23363;BME280;11853;48.080;11.960;2024-03-08T09:37:18;94344.50;;;10.41;78.20
23363;BME280;11853;48.080;11.960;2024-03-08T09:39:44;94345.78;;;10.20;76.89
23363;BME280;11853;48.080;11.960;2024-03-08T09:42:10;94331.69;;;10.11;74.74
23363;BME280;11853;48.080;11.960;2024-03-08T09:44:44;94335.22;;;9.78;75.23
23363;BME280;11853;48.080;11.960;2024-03-08T09:47:13;94322.59;;;9.63;79.96
23363;BME280;11853;48.080;11.960;2024-03-08T09:49:39;94330.81;;;9.52;79.45
23363;BME280;11853;48.080;11.960;2024-03-08T09:52:09;94334.22;;;9.70;77.84
23363;BME280;11853;48.080;11.960;2024-03-08T09:54:38;94320.84;;;9.38;77.84
23363;BME280;11853;48.080;11.960;2024-03-08T09:57:04;94320.09;;;9.19;80.03
23363;BME280;11853;48.080;11.960;2024-03-08T09:59:30;94313.94;;;9.11;79.89
23363;BME280;11853;48.080;11.960;2024-03-08T10:02:02;94315.53;;;9.03;80.11
23363;BME280;11853;48.080;11.960;2024-03-08T10:04:30;94323.84;;;9.09;81.12
23363;BME280;11853;48.080;11.960;2024-03-08T10:07:01;94309.09;;;9.06;82.75
23363;BME280;11853;48.080;11.960;2024-03-08T10:09:27;94318.97;;;9.22;79.62
23363;BME280;11853;48.080;11.960;2024-03-08T10:11:56;94315.06;;;9.42;81.40
23363;BME280;11853;48.080;11.960;2024-03-08T10:14:24;94313.53;;;9.32;79.49
23363;BME280;11853;48.080;11.960;2024-03-08T10:16:52;94312.50;;;8.90;82.02
23363;BME280;11853;48.080;11.960;2024-03-08T10:19:17;94313.97;;;9.19;82.31
23363;BME280;11853;48.080;11.960;2024-03-08T10:21:49;94303.91;;;9.22;80.93
23363;BME280;11853;48.080;11.960;2024-03-08T10:24:17;94309.50;;;9.19;80.56
23363;BME280;11853;48.080;11.960;2024-03-08T10:26:43;94304.91;;;9.21;82.65
23363;BME280;11853;48.080;11.960;2024-03-08T10:29:09;94305.28;;;9.35;81.60
23363;BME280;11853;48.080;11.960;2024-03-08T10:31:35;94294.91;;;9.41;80.12
23363;BME280;11853;48.080;11.960;2024-03-08T10:34:01;94296.56;;;9.08;79.79
23363;BME280;11853;48.080;11.960;2024-03-08T10:36:28;94289.38;;;9.00;83.56
23363;BME280;11853;48.080;11.960;2024-03-08T10:38:55;94289.38;;;9.00;82.79
23363;BME280;11853;48.080;11.960;2024-03-08T10:41:24;94284.59;;;9.04;82.97
23363;BME280;11853;48.080;11.960;2024-03-08T10:44:32;94285.41;;;9.31;82.38
23363;BME280;11853;48.080;11.960;2024-03-08T10:47:03;94289.75;;;9.40;80.53
23363;BME280;11853;48.080;11.960;2024-03-08T10:52:18;94284.56;;;9.22;81.41
23363;BME280;11853;48.080;11.960;2024-03-08T10:54:45;94287.94;;;9.06;81.79
23363;BME280;11853;48.080;11.960;2024-03-08T10:57:12;94277.34;;;9.06;82.09
23363;BME280;11853;48.080;11.960;2024-03-08T10:59:38;94277.63;;;8.95;81.29
23363;BME280;11853;48.080;11.960;2024-03-08T11:02:05;94274.56;;;9.08;83.42
23363;BME280;11853;48.080;11.960;2024-03-08T11:04:31;94276.53;;;9.06;82.04
23363;BME280;11853;48.080;11.960;2024-03-08T11:07:02;94281.72;;;9.23;81.63
23363;BME280;11853;48.080;11.960;2024-03-08T11:09:36;94275.75;;;9.13;81.05
23363;BME280;11853;48.080;11.960;2024-03-08T11:12:21;94270.78;;;9.18;81.53
23363;BME280;11853;48.080;11.960;2024-03-08T11:14:48;94269.28;;;9.08;81.60
23363;BME280;11853;48.080;11.960;2024-03-08T11:19:58;94261.56;;;9.22;80.64
23363;BME280;11853;48.080;11.960;2024-03-08T11:22:32;94262.50;;;9.13;80.47
23363;BME280;11853;48.080;11.960;2024-03-08T11:25:05;94251.94;;;9.13;79.97
23363;BME280;11853;48.080;11.960;2024-03-08T11:27:37;94247.28;;;9.15;82.39
23363;BME280;11853;48.080;11.960;2024-03-08T11:30:05;94239.06;;;9.27;81.91
23363;BME280;11853;48.080;11.960;2024-03-08T11:32:38;94235.91;;;9.23;78.45
23363;BME280;11853;48.080;11.960;2024-03-08T11:35:08;94230.19;;;8.93;79.14
23363;BME280;11853;48.080;11.960;2024-03-08T11:37:44;94235.25;;;8.87;81.47
23363;BME280;11853;48.080;11.960;2024-03-08T11:40:13;94233.28;;;8.89;82.90
23363;BME280;11853;48.080;11.960;2024-03-08T11:42:48;94226.56;;;9.02;82.25
23363;BME280;11853;48.080;11.960;2024-03-08T11:45:15;94219.69;;;8.84;81.80
23363;BME280;11853;48.080;11.960;2024-03-08T11:47:45;94223.50;;;8.55;82.61
23363;BME280;11853;48.080;11.960;2024-03-08T11:50:14;94223.81;;;8.78;83.82
23363;BME280;11853;48.080;11.960;2024-03-08T11:52:40;94216.31;;;8.65;82.01
23363;BME280;11853;48.080;11.960;2024-03-08T11:55:06;94220.34;;;8.77;82.83
23363;BME280;11853;48.080;11.960;2024-03-08T11:57:32;94214.53;;;8.74;82.88
23363;BME280;11853;48.080;11.960;2024-03-08T11:59:59;94213.06;;;8.79;82.43
23363;BME280;11853;48.080;11.960;2024-03-08T12:02:34;94214.44;;;8.92;83.56
23363;BME280;11853;48.080;11.960;2024-03-08T12:05:04;94206.69;;;8.98;80.51
23363;BME280;11853;48.080;11.960;2024-03-08T12:07:35;94208.06;;;9.02;80.95
23363;BME280;11853;48.080;11.960;2024-03-08T12:10:18;94208.56;;;9.06;80.58
23363;BME280;11853;48.080;11.960;2024-03-08T12:12:48;94203.25;;;9.06;81.11
23363;BME280;11853;48.080;11.960;2024-03-08T12:15:15;94208.59;;;9.14;81.43
23363;BME280;11853;48.080;11.960;2024-03-08T12:17:43;94200.34;;;9.17;79.53
23363;BME280;11853;48.080;11.960;2024-03-08T12:20:16;94200.66;;;9.14;78.87
23363;BME280;11853;48.080;11.960;2024-03-08T12:22:43;94178.97;;;9.02;79.68
23363;BME280;11853;48.080;11.960;2024-03-08T12:25:11;94176.34;;;9.11;79.71
23363;BME280;11853;48.080;11.960;2024-03-08T12:27:39;94184.81;;;9.22;79.07
23363;BME280;11853;48.080;11.960;2024-03-08T12:30:22;94173.91;;;9.25;77.93
23363;BME280;11853;48.080;11.960;2024-03-08T12:35:25;94157.66;;;9.20;78.68
23363;BME280;11853;48.080;11.960;2024-03-08T12:37:56;94173.75;;;9.27;79.45
23363;BME280;11853;48.080;11.960;2024-03-08T12:40:31;94163.34;;;9.34;78.22
23363;BME280;11853;48.080;11.960;2024-03-08T12:42:58;94167.59;;;9.27;77.32
23363;BME280;11853;48.080;11.960;2024-03-08T12:45:24;94165.63;;;9.29;77.24
23363;BME280;11853;48.080;11.960;2024-03-08T12:47:54;94152.88;;;9.24;77.13
23363;BME280;11853;48.080;11.960;2024-03-08T12:50:23;94148.75;;;9.21;76.25
23363;BME280;11853;48.080;11.960;2024-03-08T12:52:55;94145.13;;;9.22;74.62
23363;BME280;11853;48.080;11.960;2024-03-08T12:55:21;94138.78;;;9.15;74.93
23363;BME280;11853;48.080;11.960;2024-03-08T12:57:47;94141.78;;;9.20;76.05
23363;BME280;11853;48.080;11.960;2024-03-08T13:00:14;94142.16;;;9.34;75.96
23363;BME280;11853;48.080;11.960;2024-03-08T13:02:48;94140.50;;;9.24;73.66
23363;BME280;11853;48.080;11.960;2024-03-08T13:05:16;94134.97;;;9.10;74.85
23363;BME280;11853;48.080;11.960;2024-03-08T13:07:43;94127.53;;;9.05;75.40
23363;BME280;11853;48.080;11.960;2024-03-08T13:10:13;94131.53;;;9.17;77.46
23363;BME280;11853;48.080;11.960;2024-03-08T13:12:43;94128.09;;;9.25;77.34
23363;BME280;11853;48.080;11.960;2024-03-08T13:15:09;94128.75;;;9.19;76.74